• Join FlightAware (Why Join?)
  • Login
  • US Flag 
10:28AM EDT


 

Airport Tracker/Info


-or-


 

Live Flight TrackerFlight Track Log ✈ UAL3817 ✈ 01-Nov-2013 ✈ KRIC - KCLE

Flight Track Log - Related Links

Times and Time Zones

All times are in EDT time to prevent confusion due to time zone crossing. See the UAL3817 flight status page for this flight to view local times or setup timezone preferences in your user account.

Time Position Orientation Groundspeed Altitude Reporting Facility
EDT Latitude Longitude Course Direction KTS MPH feet Rate Location/Type
03:40PM 37.4833 -77.3333 237° Southwest 158 182 1,200  Level Potomac TRACON
03:41PM 37.4483 -77.4019 237° Southwest 168 193 3,700 2,280 Climbing Washington Center
03:42PM 37.4556 -77.4808 277° West 190 219 6,500 2,460 Climbing Washington Center
03:43PM 37.5044 -77.5447 314° West 204 235 8,700 2,100 Climbing Washington Center
03:44PM 37.5578 -77.6089 316° Northwest 235 270 10,800 1,680 Climbing Washington Center
03:45PM 37.6192 -77.6789 318° Northwest 261 300 12,100 1,260 Climbing Washington Center
03:46PM 37.6803 -77.7514 317° Northwest 314 361 13,300 1,140 Climbing Washington Center
03:47PM 37.7478 -77.8319 317° Northwest 327 376 14,400 1,080 Climbing Washington Center
03:48PM 37.8169 -77.9156 316° Northwest 332 382 15,500 1,080 Climbing Washington Center
03:49PM 37.8864 -77.9992 316° Northwest 343 395 16,600 1,140 Climbing Washington Center
03:50PM 37.9575 -78.0833 317° Northwest 348 400 17,800 1,320 Climbing Washington Center
03:51PM 38.0519 -78.1628 326° Northwest 356 410 19,300 1,320 Climbing Washington Center
03:52PM 38.1664 -78.1667 358° North 377 434 20,500 1,140 Climbing Washington Center
03:53PM 38.2872 -78.1736 357° North 397 457 21,600 1,140 Climbing Washington Center
03:54PM 38.4039 -78.1803 357° North 412 474 22,800 1,200 Climbing Washington Center
03:55PM 38.5269 -78.1872 357° North 423 487 24,000 1,140 Climbing Washington Center
03:56PM 38.6456 -78.1939 357° North 428 493 25,100 1,140 Climbing Washington Center
03:57PM 38.7706 -78.2011 357° North 433 498 26,300 900 Climbing Washington Center
03:58PM 38.8911 -78.2133 355° North 433 498 27,000 300 Climbing Washington Center
03:59PM 39.0200 -78.2233 357° North 444 511 27,000  Level Washington Center
04:00PM 39.1533 -78.2361 356° North 464 534 27,000  Level Washington Center
04:01PM 39.2883 -78.2517 355° North 474 545 27,000  Level Washington Center
04:03PM 39.5394 -78.2767 356° North 498 573 27,000  Level Cleveland Center
04:04PM 39.7081 -78.2917 356° North 503 579 27,000  Level Cleveland Center
04:05PM 39.8422 -78.3058 355° North 505 581 27,000  Level Cleveland Center
04:06PM 39.9728 -78.3456 347° North 489 563 27,000  Level Cleveland Center
04:07PM 40.0625 -78.4525 318° Northwest 444 511 27,000  Level Cleveland Center
04:08PM 40.1556 -78.5919 311° West 428 493 27,000  Level Cleveland Center
04:09PM 40.2333 -78.7072 311° West 426 490 27,000  Level Cleveland Center
04:10PM 40.3100 -78.8278 310° West 432 497 27,000  Level Cleveland Center
04:11PM 40.3797 -78.9433 308° West 411 473 27,000  Level Cleveland Center
04:13PM 40.4472 -79.0644 306° West 422 486 27,000  Level Cleveland Center
04:14PM 40.5147 -79.1850 306° West 412 474 27,000  Level Cleveland Center
04:15PM 40.5836 -79.3114 306° West 415 478 27,000  Level Cleveland Center
04:16PM 40.6647 -79.4542 307° West 410 472 27,000 -240 Level Cleveland Center
04:17PM 40.7303 -79.5717 306° West 403 464 26,600 -1,200 Descending Cleveland Center
04:18PM 40.7942 -79.6894 306° West 400 460 24,600 -1,260 Descending Cleveland Center
04:19PM 40.8589 -79.8069 306° West 399 459 24,000 -300 Descending Cleveland Center
04:20PM 40.9242 -79.9250 306° West 401 461 24,000  Level Cleveland Center
04:21PM 41.0039 -80.0708 306° West 409 471 24,000  Level Cleveland Center
04:22PM 41.0692 -80.1922 306° West 409 471 24,000 -840 Level Cleveland Center
04:23PM 41.1347 -80.3133 306° West 407 468 22,300 -1,920 Descending Cleveland Center
04:24PM 41.2064 -80.4419 307° West 397 457 20,100 -1,860 Descending Cleveland Center
04:25PM 41.2656 -80.5517 306° West 373 429 18,500 -1,860 Descending Cleveland Center
04:26PM 41.3247 -80.6653 305° West 371 427 16,300 -1,920 Descending Cleveland Center
04:27PM 41.3708 -80.7789 298° West 356 410 14,500 -1,140 Descending Cleveland Center
04:28PM 41.4133 -80.8956 296° West 349 402 14,000 -840 Descending Cleveland Center
04:28PM 41.4333 -80.9453 298° West 348 400 13,400 -1,980 Descending Cleveland Center
04:29PM 41.4564 -81.0086 296° West 343 395 12,000 -2,520 Descending Cleveland Center
04:29PM 41.4731 -81.0486 299° West 338 389 11,100 -1,860 Descending Cleveland Center
04:30PM 41.4944 -81.1411 287° West 336 387 10,100 -1,140 Descending Cleveland Center
04:30PM 41.4989 -81.1614 286° West 318 366 10,000 -120 Descending Cleveland Center
04:31PM 41.5086 -81.2561 278° West 317 365 10,000  Level Cleveland Center
04:31PM 41.5125 -81.2694 291° West 286 329 10,000 -1,380 Level Cleveland Center
04:32PM 41.5222 -81.3453 280° West 255 293 8,600 -1,680 Descending Cleveland Center
04:32PM 41.5242 -81.3522 291° West 231 266 8,500 -1,800 Descending Cleveland Center
04:33PM 41.5322 -81.4300 278° West 235 270 6,800 -1,260 Descending Cleveland Center
04:34PM 41.5244 -81.5158 263° West 233 268 6,000 -660 Descending Cleveland Center
04:34PM 41.5247 -81.5367 271° West 228 262 6,100 -300 Climbing Cleveland Center
04:35PM 41.5186 -81.5978 262° West 226 260 5,700 -720 Descending Cleveland Center
04:35PM 41.5197 -81.6169 274° West 220 253 5,400 -1,920 Descending Cleveland Center
04:36PM 41.5158 -81.6806 265° West 206 237 3,900 -1,560 Descending Cleveland Center
04:36PM 41.5136 -81.6875 247° West 214 246 3,900 -900 Level Cleveland Center
04:37PM 41.4853 -81.7400 234° Southwest 172 198 3,000 -900 Descending Cleveland Center
04:37PM 41.4817 -81.7383 161° South 190 219 3,000 -840 Level Cleveland Center
04:39PM 41.4054 -81.8284 252° West  Level FlightAware Approximate
04:39PM 41.4314 -81.8233 252° West 129 148 1,400  Level Cleveland Center
04:39PM 41.4306 -81.8214 120° Southeast 141 162 1,400 -480 Level Cleveland Center
04:40PM 41.4081 -81.8564 229° Southwest 135 155 900 -540 Descending Cleveland Center
04:42PM 41.4094 -81.8547 North  Level Estimated